sensor_id;sensor_type;location;lat;lon;timestamp;P1;durP1;ratioP1;P2;durP2;ratioP2
59649;SDS011;46162;57.568;25.814;2022-11-14T00:01:29;9.32;;;1.50;;
59649;SDS011;46162;57.568;25.814;2022-11-14T00:04:17;14.88;;;2.20;;
59649;SDS011;46162;57.568;25.814;2022-11-14T00:07:04;16.75;;;2.10;;
59649;SDS011;46162;57.568;25.814;2022-11-14T00:09:52;18.80;;;2.00;;
59649;SDS011;46162;57.568;25.814;2022-11-14T00:12:39;22.20;;;2.20;;
59649;SDS011;46162;57.568;25.814;2022-11-14T00:15:27;11.90;;;1.90;;
59649;SDS011;46162;57.568;25.814;2022-11-14T00:18:15;14.55;;;1.88;;
59649;SDS011;46162;57.568;25.814;2022-11-14T00:21:02;16.67;;;1.67;;
59649;SDS011;46162;57.568;25.814;2022-11-14T00:23:49;14.48;;;1.88;;
59649;SDS011;46162;57.568;25.814;2022-11-14T00:26:38;8.40;;;1.90;;
59649;SDS011;46162;57.568;25.814;2022-11-14T00:29:25;8.93;;;1.52;;
59649;SDS011;46162;57.568;25.814;2022-11-14T00:32:12;12.88;;;1.63;;
59649;SDS011;46162;57.568;25.814;2022-11-14T00:34:59;10.77;;;1.48;;
59649;SDS011;46162;57.568;25.814;2022-11-14T00:37:46;7.10;;;1.17;;
59649;SDS011;46162;57.568;25.814;2022-11-14T00:40:34;5.57;;;1.40;;
59649;SDS011;46162;57.568;25.814;2022-11-14T00:43:22;7.30;;;1.10;;
59649;SDS011;46162;57.568;25.814;2022-11-14T00:46:10;17.25;;;1.88;;
59649;SDS011;46162;57.568;25.814;2022-11-14T00:48:57;10.90;;;2.05;;
59649;SDS011;46162;57.568;25.814;2022-11-14T00:51:44;12.70;;;1.58;;
59649;SDS011;46162;57.568;25.814;2022-11-14T00:54:32;5.55;;;1.42;;
59649;SDS011;46162;57.568;25.814;2022-11-14T00:57:19;3.88;;;1.05;;
59649;SDS011;46162;57.568;25.814;2022-11-14T01:00:09;8.30;;;1.13;;
59649;SDS011;46162;57.568;25.814;2022-11-14T01:02:58;5.60;;;1.05;;
59649;SDS011;46162;57.568;25.814;2022-11-14T01:05:46;8.90;;;1.75;;
59649;SDS011;46162;57.568;25.814;2022-11-14T01:08:34;5.40;;;0.77;;
59649;SDS011;46162;57.568;25.814;2022-11-14T01:11:21;3.85;;;0.85;;
59649;SDS011;46162;57.568;25.814;2022-11-14T01:14:08;5.13;;;1.20;;
59649;SDS011;46162;57.568;25.814;2022-11-14T01:16:57;5.28;;;0.47;;
59649;SDS011;46162;57.568;25.814;2022-11-14T01:19:44;3.78;;;0.93;;
59649;SDS011;46162;57.568;25.814;2022-11-14T01:22:31;3.58;;;0.70;;
59649;SDS011;46162;57.568;25.814;2022-11-14T01:25:19;4.15;;;0.98;;
59649;SDS011;46162;57.568;25.814;2022-11-14T01:28:06;5.18;;;1.23;;
59649;SDS011;46162;57.568;25.814;2022-11-14T01:30:54;7.57;;;1.70;;
59649;SDS011;46162;57.568;25.814;2022-11-14T01:33:43;7.05;;;1.05;;
59649;SDS011;46162;57.568;25.814;2022-11-14T01:36:33;6.47;;;1.30;;
59649;SDS011;46162;57.568;25.814;2022-11-14T01:39:21;6.53;;;1.75;;
59649;SDS011;46162;57.568;25.814;2022-11-14T01:42:08;9.55;;;1.42;;
59649;SDS011;46162;57.568;25.814;2022-11-14T01:44:57;11.07;;;1.42;;
59649;SDS011;46162;57.568;25.814;2022-11-14T01:47:44;9.10;;;0.90;;
59649;SDS011;46162;57.568;25.814;2022-11-14T01:50:33;10.55;;;1.17;;
59649;SDS011;46162;57.568;25.814;2022-11-14T01:53:20;11.63;;;1.05;;
59649;SDS011;46162;57.568;25.814;2022-11-14T01:56:07;3.85;;;0.60;;
59649;SDS011;46162;57.568;25.814;2022-11-14T01:58:58;14.45;;;1.27;;
59649;SDS011;46162;57.568;25.814;2022-11-14T02:01:49;13.18;;;1.27;;
59649;SDS011;46162;57.568;25.814;2022-11-14T02:04:40;4.13;;;1.52;;
59649;SDS011;46162;57.568;25.814;2022-11-14T02:10:20;6.03;;;1.10;;
59649;SDS011;46162;57.568;25.814;2022-11-14T02:13:08;7.70;;;1.27;;
59649;SDS011;46162;57.568;25.814;2022-11-14T02:15:55;4.68;;;1.10;;
59649;SDS011;46162;57.568;25.814;2022-11-14T02:18:43;5.43;;;1.23;;
59649;SDS011;46162;57.568;25.814;2022-11-14T02:21:32;4.10;;;0.98;;
59649;SDS011;46162;57.568;25.814;2022-11-14T02:24:20;6.20;;;1.00;;
59649;SDS011;46162;57.568;25.814;2022-11-14T02:27:07;10.57;;;0.80;;
59649;SDS011;46162;57.568;25.814;2022-11-14T02:30:01;5.95;;;0.80;;
59649;SDS011;46162;57.568;25.814;2022-11-14T02:32:49;2.53;;;0.52;;
59649;SDS011;46162;57.568;25.814;2022-11-14T02:35:57;3.22;;;0.32;;
59649;SDS011;46162;57.568;25.814;2022-11-14T02:38:46;13.30;;;0.70;;
59649;SDS011;46162;57.568;25.814;2022-11-14T02:41:33;1.48;;;0.20;;
59649;SDS011;46162;57.568;25.814;2022-11-14T02:44:20;15.85;;;0.50;;
59649;SDS011;46162;57.568;25.814;2022-11-14T02:47:08;2.20;;;0.40;;
59649;SDS011;46162;57.568;25.814;2022-11-14T02:49:55;3.50;;;0.28;;
59649;SDS011;46162;57.568;25.814;2022-11-14T02:52:42;3.38;;;0.20;;
59649;SDS011;46162;57.568;25.814;2022-11-14T02:55:31;2.92;;;0.20;;
59649;SDS011;46162;57.568;25.814;2022-11-14T02:58:18;1.90;;;0.30;;
59649;SDS011;46162;57.568;25.814;2022-11-14T03:01:05;1.67;;;0.20;;
59649;SDS011;46162;57.568;25.814;2022-11-14T03:04:06;7.67;;;0.20;;
59649;SDS011;46162;57.568;25.814;2022-11-14T03:06:53;5.75;;;0.20;;
59649;SDS011;46162;57.568;25.814;2022-11-14T03:09:40;3.20;;;0.25;;
59649;SDS011;46162;57.568;25.814;2022-11-14T03:12:29;1.80;;;0.20;;
59649;SDS011;46162;57.568;25.814;2022-11-14T03:15:16;4.55;;;0.40;;
59649;SDS011;46162;57.568;25.814;2022-11-14T03:18:04;6.35;;;0.40;;
59649;SDS011;46162;57.568;25.814;2022-11-14T03:20:51;2.30;;;0.20;;
59649;SDS011;46162;57.568;25.814;2022-11-14T03:23:38;4.45;;;0.20;;
59649;SDS011;46162;57.568;25.814;2022-11-14T03:26:26;6.63;;;0.30;;
59649;SDS011;46162;57.568;25.814;2022-11-14T03:29:15;1.92;;;0.30;;
59649;SDS011;46162;57.568;25.814;2022-11-14T03:32:02;8.25;;;0.20;;
59649;SDS011;46162;57.568;25.814;2022-11-14T03:34:50;2.95;;;0.20;;
59649;SDS011;46162;57.568;25.814;2022-11-14T03:37:37;4.15;;;0.17;;
59649;SDS011;46162;57.568;25.814;2022-11-14T03:40:25;3.83;;;0.20;;
59649;SDS011;46162;57.568;25.814;2022-11-14T03:43:13;5.72;;;0.50;;
59649;SDS011;46162;57.568;25.814;2022-11-14T03:46:02;2.22;;;0.20;;
59649;SDS011;46162;57.568;25.814;2022-11-14T03:48:50;1.55;;;0.20;;
59649;SDS011;46162;57.568;25.814;2022-11-14T03:51:37;2.78;;;0.20;;
59649;SDS011;46162;57.568;25.814;2022-11-14T03:54:24;8.73;;;0.20;;
59649;SDS011;46162;57.568;25.814;2022-11-14T03:57:11;4.53;;;0.10;;
59649;SDS011;46162;57.568;25.814;2022-11-14T03:59:59;1.55;;;0.10;;
59649;SDS011;46162;57.568;25.814;2022-11-14T04:02:48;1.08;;;0.10;;
59649;SDS011;46162;57.568;25.814;2022-11-14T04:05:35;14.10;;;0.30;;
59649;SDS011;46162;57.568;25.814;2022-11-14T04:08:23;2.55;;;0.20;;
59649;SDS011;46162;57.568;25.814;2022-11-14T04:11:11;4.15;;;0.22;;
59649;SDS011;46162;57.568;25.814;2022-11-14T04:13:59;1.83;;;0.43;;
59649;SDS011;46162;57.568;25.814;2022-11-14T04:16:46;1.50;;;0.20;;
59649;SDS011;46162;57.568;25.814;2022-11-14T04:19:35;6.38;;;0.10;;
59649;SDS011;46162;57.568;25.814;2022-11-14T04:22:22;5.75;;;0.40;;
59649;SDS011;46162;57.568;25.814;2022-11-14T04:25:10;0.80;;;0.10;;
59649;SDS011;46162;57.568;25.814;2022-11-14T04:27:57;18.48;;;0.10;;
59649;SDS011;46162;57.568;25.814;2022-11-14T04:30:44;19.33;;;0.17;;
59649;SDS011;46162;57.568;25.814;2022-11-14T04:33:31;1.63;;;0.10;;
59649;SDS011;46162;57.568;25.814;2022-11-14T04:36:20;1.15;;;0.10;;
59649;SDS011;46162;57.568;25.814;2022-11-14T04:39:08;42.50;;;0.32;;
59649;SDS011;46162;57.568;25.814;2022-11-14T04:41:55;25.92;;;0.20;;
59649;SDS011;46162;57.568;25.814;2022-11-14T04:44:42;11.60;;;0.13;;
59649;SDS011;46162;57.568;25.814;2022-11-14T04:47:30;14.65;;;0.22;;
59649;SDS011;46162;57.568;25.814;2022-11-14T04:50:18;15.52;;;0.30;;
59649;SDS011;46162;57.568;25.814;2022-11-14T04:53:07;27.48;;;0.30;;
59649;SDS011;46162;57.568;25.814;2022-11-14T04:55:54;1.83;;;0.20;;
59649;SDS011;46162;57.568;25.814;2022-11-14T04:58:41;23.70;;;0.32;;
59649;SDS011;46162;57.568;25.814;2022-11-14T05:01:29;19.52;;;0.20;;
59649;SDS011;46162;57.568;25.814;2022-11-14T05:04:16;14.30;;;0.22;;
59649;SDS011;46162;57.568;25.814;2022-11-14T05:07:04;17.35;;;0.40;;
59649;SDS011;46162;57.568;25.814;2022-11-14T05:09:53;2.75;;;0.10;;
59649;SDS011;46162;57.568;25.814;2022-11-14T05:12:40;50.92;;;0.50;;
59649;SDS011;46162;57.568;25.814;2022-11-14T05:15:28;10.90;;;0.30;;
59649;SDS011;46162;57.568;25.814;2022-11-14T05:18:15;15.68;;;0.57;;
59649;SDS011;46162;57.568;25.814;2022-11-14T05:21:03;22.10;;;0.63;;
59649;SDS011;46162;57.568;25.814;2022-11-14T05:23:50;13.57;;;0.50;;
59649;SDS011;46162;57.568;25.814;2022-11-14T05:26:39;25.50;;;0.88;;
59649;SDS011;46162;57.568;25.814;2022-11-14T05:29:27;17.63;;;0.40;;
59649;SDS011;46162;57.568;25.814;2022-11-14T05:32:14;2.13;;;0.20;;
59649;SDS011;46162;57.568;25.814;2022-11-14T05:35:02;92.45;;;1.23;;
59649;SDS011;46162;57.568;25.814;2022-11-14T05:37:49;1.38;;;0.10;;
59649;SDS011;46162;57.568;25.814;2022-11-14T05:40:44;21.98;;;0.73;;
59649;SDS011;46162;57.568;25.814;2022-11-14T05:43:33;2.63;;;0.10;;
59649;SDS011;46162;57.568;25.814;2022-11-14T05:46:21;0.90;;;0.10;;
59649;SDS011;46162;57.568;25.814;2022-11-14T05:49:08;148.32;;;2.58;;
59649;SDS011;46162;57.568;25.814;2022-11-14T05:51:56;42.17;;;0.80;;
59649;SDS011;46162;57.568;25.814;2022-11-14T05:54:43;1.75;;;0.20;;
59649;SDS011;46162;57.568;25.814;2022-11-14T05:57:30;10.70;;;0.30;;
59649;SDS011;46162;57.568;25.814;2022-11-14T06:00:19;25.15;;;0.57;;
59649;SDS011;46162;57.568;25.814;2022-11-14T06:03:07;6.30;;;0.32;;
59649;SDS011;46162;57.568;25.814;2022-11-14T06:05:54;18.90;;;0.30;;
59649;SDS011;46162;57.568;25.814;2022-11-14T06:08:41;10.05;;;0.20;;
59649;SDS011;46162;57.568;25.814;2022-11-14T06:11:29;61.20;;;0.93;;
59649;SDS011;46162;57.568;25.814;2022-11-14T06:14:16;111.63;;;2.00;;
59649;SDS011;46162;57.568;25.814;2022-11-14T06:17:04;31.90;;;0.30;;
59649;SDS011;46162;57.568;25.814;2022-11-14T06:19:52;7.45;;;0.15;;
59649;SDS011;46162;57.568;25.814;2022-11-14T06:22:39;25.92;;;0.30;;
59649;SDS011;46162;57.568;25.814;2022-11-14T06:25:26;35.70;;;0.90;;
59649;SDS011;46162;57.568;25.814;2022-11-14T06:28:13;48.45;;;0.47;;
59649;SDS011;46162;57.568;25.814;2022-11-14T06:31:01;15.95;;;0.20;;
59649;SDS011;46162;57.568;25.814;2022-11-14T06:33:51;31.80;;;0.30;;
59649;SDS011;46162;57.568;25.814;2022-11-14T06:36:39;38.35;;;0.45;;
59649;SDS011;46162;57.568;25.814;2022-11-14T06:39:26;19.52;;;0.35;;
59649;SDS011;46162;57.568;25.814;2022-11-14T06:42:14;4.32;;;0.20;;
59649;SDS011;46162;57.568;25.814;2022-11-14T06:45:02;5.45;;;0.15;;
59649;SDS011;46162;57.568;25.814;2022-11-14T06:47:49;38.08;;;0.43;;
59649;SDS011;46162;57.568;25.814;2022-11-14T06:50:38;64.07;;;0.80;;
59649;SDS011;46162;57.568;25.814;2022-11-14T06:53:26;30.70;;;0.38;;
59649;SDS011;46162;57.568;25.814;2022-11-14T06:56:16;28.48;;;0.57;;
59649;SDS011;46162;57.568;25.814;2022-11-14T06:59:06;6.07;;;0.28;;
59649;SDS011;46162;57.568;25.814;2022-11-14T07:01:54;12.35;;;0.25;;
59649;SDS011;46162;57.568;25.814;2022-11-14T07:04:41;16.67;;;0.30;;
59649;SDS011;46162;57.568;25.814;2022-11-14T07:07:31;31.42;;;0.30;;
59649;SDS011;46162;57.568;25.814;2022-11-14T07:10:20;27.17;;;0.45;;
59649;SDS011;46162;57.568;25.814;2022-11-14T07:13:07;71.22;;;1.35;;
59649;SDS011;46162;57.568;25.814;2022-11-14T07:15:56;1.38;;;0.10;;
59649;SDS011;46162;57.568;25.814;2022-11-14T07:18:45;140.45;;;5.57;;
59649;SDS011;46162;57.568;25.814;2022-11-14T07:21:33;1.83;;;0.20;;
59649;SDS011;46162;57.568;25.814;2022-11-14T07:24:22;2.00;;;0.25;;
59649;SDS011;46162;57.568;25.814;2022-11-14T07:27:10;14.35;;;0.40;;
59649;SDS011;46162;57.568;25.814;2022-11-14T07:29:57;50.22;;;0.95;;
59649;SDS011;46162;57.568;25.814;2022-11-14T07:32:44;36.58;;;0.63;;
59649;SDS011;46162;57.568;25.814;2022-11-14T07:35:32;43.03;;;0.70;;
59649;SDS011;46162;57.568;25.814;2022-11-14T07:38:22;36.67;;;0.97;;
59649;SDS011;46162;57.568;25.814;2022-11-14T07:41:11;45.38;;;1.20;;
59649;SDS011;46162;57.568;25.814;2022-11-14T07:44:00;20.88;;;0.60;;
59649;SDS011;46162;57.568;25.814;2022-11-14T07:46:47;37.88;;;1.15;;
59649;SDS011;46162;57.568;25.814;2022-11-14T07:49:36;9.05;;;0.88;;
59649;SDS011;46162;57.568;25.814;2022-11-14T07:52:24;3.08;;;0.38;;
59649;SDS011;46162;57.568;25.814;2022-11-14T07:55:11;6.38;;;0.55;;
59649;SDS011;46162;57.568;25.814;2022-11-14T07:57:59;20.23;;;1.35;;
59649;SDS011;46162;57.568;25.814;2022-11-14T08:00:47;25.50;;;1.48;;
59649;SDS011;46162;57.568;25.814;2022-11-14T08:03:35;34.67;;;1.67;;
59649;SDS011;46162;57.568;25.814;2022-11-14T08:06:30;9.68;;;1.08;;
59649;SDS011;46162;57.568;25.814;2022-11-14T08:09:17;16.52;;;1.40;;
59649;SDS011;46162;57.568;25.814;2022-11-14T08:12:07;28.52;;;1.40;;
59649;SDS011;46162;57.568;25.814;2022-11-14T08:14:56;9.48;;;1.02;;
59649;SDS011;46162;57.568;25.814;2022-11-14T08:17:43;6.20;;;0.90;;
59649;SDS011;46162;57.568;25.814;2022-11-14T08:20:31;79.63;;;3.22;;
59649;SDS011;46162;57.568;25.814;2022-11-14T08:23:18;3.60;;;1.13;;
59649;SDS011;46162;57.568;25.814;2022-11-14T08:26:05;31.23;;;2.35;;
59649;SDS011;46162;57.568;25.814;2022-11-14T08:28:53;60.03;;;2.55;;
59649;SDS011;46162;57.568;25.814;2022-11-14T08:31:42;17.83;;;1.55;;
59649;SDS011;46162;57.568;25.814;2022-11-14T08:34:31;16.48;;;1.65;;
59649;SDS011;46162;57.568;25.814;2022-11-14T08:37:18;3.45;;;1.13;;
59649;SDS011;46162;57.568;25.814;2022-11-14T08:40:06;27.35;;;1.65;;
59649;SDS011;46162;57.568;25.814;2022-11-14T08:42:57;13.35;;;2.17;;
59649;SDS011;46162;57.568;25.814;2022-11-14T08:45:47;53.40;;;2.92;;
59649;SDS011;46162;57.568;25.814;2022-11-14T08:48:35;59.42;;;3.15;;
59649;SDS011;46162;57.568;25.814;2022-11-14T08:51:22;24.58;;;2.80;;
59649;SDS011;46162;57.568;25.814;2022-11-14T08:54:10;4.30;;;1.73;;
59649;SDS011;46162;57.568;25.814;2022-11-14T08:56:57;15.35;;;2.97;;
59649;SDS011;46162;57.568;25.814;2022-11-14T08:59:44;56.88;;;3.13;;
59649;SDS011;46162;57.568;25.814;2022-11-14T09:02:31;7.22;;;2.30;;
59649;SDS011;46162;57.568;25.814;2022-11-14T09:05:20;8.27;;;2.35;;
59649;SDS011;46162;57.568;25.814;2022-11-14T09:08:07;16.33;;;2.22;;
59649;SDS011;46162;57.568;25.814;2022-11-14T09:10:55;36.25;;;3.50;;
59649;SDS011;46162;57.568;25.814;2022-11-14T09:13:50;7.68;;;3.03;;
59649;SDS011;46162;57.568;25.814;2022-11-14T09:16:37;5.78;;;2.67;;
59649;SDS011;46162;57.568;25.814;2022-11-14T09:19:25;9.90;;;2.90;;
59649;SDS011;46162;57.568;25.814;2022-11-14T09:22:14;6.20;;;2.58;;
59649;SDS011;46162;57.568;25.814;2022-11-14T09:25:01;14.52;;;3.15;;
59649;SDS011;46162;57.568;25.814;2022-11-14T09:27:48;19.23;;;3.20;;
59649;SDS011;46162;57.568;25.814;2022-11-14T09:30:36;42.97;;;4.10;;
59649;SDS011;46162;57.568;25.814;2022-11-14T09:33:24;36.45;;;4.05;;
59649;SDS011;46162;57.568;25.814;2022-11-14T09:36:11;24.08;;;3.45;;
59649;SDS011;46162;57.568;25.814;2022-11-14T09:39:01;45.25;;;3.60;;
59649;SDS011;46162;57.568;25.814;2022-11-14T09:41:52;27.27;;;2.88;;
59649;SDS011;46162;57.568;25.814;2022-11-14T09:44:57;11.20;;;2.25;;
59649;SDS011;46162;57.568;25.814;2022-11-14T09:47:47;7.78;;;2.80;;
59649;SDS011;46162;57.568;25.814;2022-11-14T09:53:30;13.60;;;2.40;;
59649;SDS011;46162;57.568;25.814;2022-11-14T09:56:21;58.20;;;3.30;;
59649;SDS011;46162;57.568;25.814;2022-11-14T10:01:59;26.88;;;2.90;;
59649;SDS011;46162;57.568;25.814;2022-11-14T10:04:54;114.25;;;4.43;;
59649;SDS011;46162;57.568;25.814;2022-11-14T10:07:58;24.20;;;3.00;;
59649;SDS011;46162;57.568;25.814;2022-11-14T10:10:54;5.68;;;2.25;;
59649;SDS011;46162;57.568;25.814;2022-11-14T10:13:49;9.50;;;2.80;;
59649;SDS011;46162;57.568;25.814;2022-11-14T10:16:49;22.45;;;3.03;;
59649;SDS011;46162;57.568;25.814;2022-11-14T10:19:52;24.25;;;3.13;;
59649;SDS011;46162;57.568;25.814;2022-11-14T10:22:52;4.70;;;2.30;;
59649;SDS011;46162;57.568;25.814;2022-11-14T10:25:52;80.28;;;4.28;;
59649;SDS011;46162;57.568;25.814;2022-11-14T10:28:45;53.83;;;3.35;;
59649;SDS011;46162;57.568;25.814;2022-11-14T10:31:43;37.77;;;3.60;;
59649;SDS011;46162;57.568;25.814;2022-11-14T10:34:41;17.17;;;3.03;;
59649;SDS011;46162;57.568;25.814;2022-11-14T10:37:36;117.53;;;5.93;;
59649;SDS011;46162;57.568;25.814;2022-11-14T10:40:28;118.57;;;6.13;;
59649;SDS011;46162;57.568;25.814;2022-11-14T10:43:23;125.25;;;6.95;;
59649;SDS011;46162;57.568;25.814;2022-11-14T10:46:18;9.43;;;5.90;;
59649;SDS011;46162;57.568;25.814;2022-11-14T10:49:14;18.65;;;6.93;;
59649;SDS011;46162;57.568;25.814;2022-11-14T10:52:05;14.88;;;6.43;;
59649;SDS011;46162;57.568;25.814;2022-11-14T10:55:00;17.60;;;8.23;;
59649;SDS011;46162;57.568;25.814;2022-11-14T10:57:52;30.00;;;8.43;;
59649;SDS011;46162;57.568;25.814;2022-11-14T11:00:39;123.70;;;10.02;;
59649;SDS011;46162;57.568;25.814;2022-11-14T11:03:40;19.02;;;7.55;;
59649;SDS011;46162;57.568;25.814;2022-11-14T11:06:29;19.80;;;6.65;;
59649;SDS011;46162;57.568;25.814;2022-11-14T11:09:17;13.15;;;6.40;;
59649;SDS011;46162;57.568;25.814;2022-11-14T11:12:37;45.70;;;6.30;;
59649;SDS011;46162;57.568;25.814;2022-11-14T11:15:30;9.35;;;4.90;;
59649;SDS011;46162;57.568;25.814;2022-11-14T11:18:26;44.75;;;5.90;;
59649;SDS011;46162;57.568;25.814;2022-11-14T11:21:17;48.67;;;6.37;;
59649;SDS011;46162;57.568;25.814;2022-11-14T11:24:07;12.83;;;5.83;;
59649;SDS011;46162;57.568;25.814;2022-11-14T11:27:10;133.05;;;8.13;;
59649;SDS011;46162;57.568;25.814;2022-11-14T11:30:04;57.35;;;6.50;;
59649;SDS011;46162;57.568;25.814;2022-11-14T11:32:54;9.77;;;5.15;;
59649;SDS011;46162;57.568;25.814;2022-11-14T11:36:00;77.05;;;5.68;;
59649;SDS011;46162;57.568;25.814;2022-11-14T11:38:55;20.27;;;5.20;;
59649;SDS011;46162;57.568;25.814;2022-11-14T11:41:42;70.65;;;7.75;;
59649;SDS011;46162;57.568;25.814;2022-11-14T11:44:52;26.40;;;7.22;;
59649;SDS011;46162;57.568;25.814;2022-11-14T11:47:47;42.17;;;7.03;;
59649;SDS011;46162;57.568;25.814;2022-11-14T11:50:42;194.52;;;9.80;;
59649;SDS011;46162;57.568;25.814;2022-11-14T11:53:31;46.65;;;5.13;;
59649;SDS011;46162;57.568;25.814;2022-11-14T11:56:25;32.13;;;4.93;;
59649;SDS011;46162;57.568;25.814;2022-11-14T11:59:20;50.45;;;4.80;;
59649;SDS011;46162;57.568;25.814;2022-11-14T12:02:20;30.80;;;3.92;;
59649;SDS011;46162;57.568;25.814;2022-11-14T12:05:11;214.68;;;8.48;;
59649;SDS011;46162;57.568;25.814;2022-11-14T12:08:01;21.45;;;3.75;;
59649;SDS011;46162;57.568;25.814;2022-11-14T12:10:52;5.68;;;2.53;;
59649;SDS011;46162;57.568;25.814;2022-11-14T12:20:45;27.50;;;3.25;;
59649;SDS011;46162;57.568;25.814;2022-11-14T12:27:23;54.17;;;3.13;;
59649;SDS011;46162;57.568;25.814;2022-11-14T12:30:21;11.73;;;2.35;;
59649;SDS011;46162;57.568;25.814;2022-11-14T12:33:11;50.95;;;3.60;;
59649;SDS011;46162;57.568;25.814;2022-11-14T12:36:07;30.05;;;3.33;;
59649;SDS011;46162;57.568;25.814;2022-11-14T12:38:57;51.17;;;2.65;;
59649;SDS011;46162;57.568;25.814;2022-11-14T12:41:47;198.15;;;5.07;;
59649;SDS011;46162;57.568;25.814;2022-11-14T12:44:35;35.38;;;2.45;;
59649;SDS011;46162;57.568;25.814;2022-11-14T12:47:30;97.55;;;3.28;;
59649;SDS011;46162;57.568;25.814;2022-11-14T12:50:28;57.30;;;2.80;;
59649;SDS011;46162;57.568;25.814;2022-11-14T12:53:43;109.40;;;3.45;;
59649;SDS011;46162;57.568;25.814;2022-11-14T12:56:43;81.05;;;3.50;;
59649;SDS011;46162;57.568;25.814;2022-11-14T12:59:49;216.02;;;5.88;;
59649;SDS011;46162;57.568;25.814;2022-11-14T13:02:56;49.25;;;2.65;;
59649;SDS011;46162;57.568;25.814;2022-11-14T13:06:06;19.17;;;1.60;;
59649;SDS011;46162;57.568;25.814;2022-11-14T13:12:28;43.17;;;1.70;;
59649;SDS011;46162;57.568;25.814;2022-11-14T13:15:35;62.92;;;4.30;;
59649;SDS011;46162;57.568;25.814;2022-11-14T13:18:58;109.30;;;3.60;;
59649;SDS011;46162;57.568;25.814;2022-11-14T13:22:31;124.07;;;3.72;;
59649;SDS011;46162;57.568;25.814;2022-11-14T13:25:25;73.97;;;2.50;;
59649;SDS011;46162;57.568;25.814;2022-11-14T13:31:47;4.45;;;1.20;;
59649;SDS011;46162;57.568;25.814;2022-11-14T13:34:40;8.02;;;1.08;;
59649;SDS011;46162;57.568;25.814;2022-11-14T13:37:39;56.22;;;2.38;;
59649;SDS011;46162;57.568;25.814;2022-11-14T13:40:46;147.98;;;4.00;;
59649;SDS011;46162;57.568;25.814;2022-11-14T13:43:45;137.57;;;4.20;;
59649;SDS011;46162;57.568;25.814;2022-11-14T13:46:49;30.50;;;2.03;;
59649;SDS011;46162;57.568;25.814;2022-11-14T13:49:57;4.82;;;1.15;;
59649;SDS011;46162;57.568;25.814;2022-11-14T13:52:48;6.50;;;2.28;;
59649;SDS011;46162;57.568;25.814;2022-11-14T13:55:44;10.18;;;2.20;;
59649;SDS011;46162;57.568;25.814;2022-11-14T13:59:00;4.60;;;1.70;;
59649;SDS011;46162;57.568;25.814;2022-11-14T14:05:40;6.03;;;1.95;;
59649;SDS011;46162;57.568;25.814;2022-11-14T14:08:54;6.07;;;2.08;;
59649;SDS011;46162;57.568;25.814;2022-11-14T14:12:11;4.75;;;1.80;;
59649;SDS011;46162;57.568;25.814;2022-11-14T14:15:19;4.28;;;1.95;;
59649;SDS011;46162;57.568;25.814;2022-11-14T14:18:17;5.40;;;2.60;;
59649;SDS011;46162;57.568;25.814;2022-11-14T14:21:20;4.13;;;1.58;;
59649;SDS011;46162;57.568;25.814;2022-11-14T14:24:20;5.28;;;2.17;;
59649;SDS011;46162;57.568;25.814;2022-11-14T14:27:25;4.50;;;2.17;;
59649;SDS011;46162;57.568;25.814;2022-11-14T14:30:20;4.38;;;1.67;;
59649;SDS011;46162;57.568;25.814;2022-11-14T14:33:09;4.80;;;1.98;;
59649;SDS011;46162;57.568;25.814;2022-11-14T14:35:58;4.13;;;2.03;;
59649;SDS011;46162;57.568;25.814;2022-11-14T14:38:48;3.78;;;1.58;;
59649;SDS011;46162;57.568;25.814;2022-11-14T14:41:36;4.78;;;2.45;;
59649;SDS011;46162;57.568;25.814;2022-11-14T14:44:25;7.25;;;2.30;;
59649;SDS011;46162;57.568;25.814;2022-11-14T14:47:17;5.40;;;2.50;;
59649;SDS011;46162;57.568;25.814;2022-11-14T14:50:20;5.65;;;2.40;;
59649;SDS011;46162;57.568;25.814;2022-11-14T14:53:16;6.90;;;2.95;;
59649;SDS011;46162;57.568;25.814;2022-11-14T14:56:16;6.32;;;2.50;;
59649;SDS011;46162;57.568;25.814;2022-11-14T14:59:17;4.72;;;2.45;;
59649;SDS011;46162;57.568;25.814;2022-11-14T15:02:10;5.20;;;2.42;;
59649;SDS011;46162;57.568;25.814;2022-11-14T15:05:02;8.13;;;2.75;;
59649;SDS011;46162;57.568;25.814;2022-11-14T15:07:50;4.88;;;2.47;;
59649;SDS011;46162;57.568;25.814;2022-11-14T15:10:41;4.82;;;2.65;;
59649;SDS011;46162;57.568;25.814;2022-11-14T15:13:31;7.43;;;2.67;;
59649;SDS011;46162;57.568;25.814;2022-11-14T15:16:21;7.20;;;3.33;;
59649;SDS011;46162;57.568;25.814;2022-11-14T15:19:09;6.63;;;3.00;;
59649;SDS011;46162;57.568;25.814;2022-11-14T15:22:03;4.70;;;2.27;;
59649;SDS011;46162;57.568;25.814;2022-11-14T15:25:19;6.75;;;3.10;;
59649;SDS011;46162;57.568;25.814;2022-11-14T15:28:14;4.85;;;2.38;;
59649;SDS011;46162;57.568;25.814;2022-11-14T15:31:04;5.78;;;2.40;;
59649;SDS011;46162;57.568;25.814;2022-11-14T15:33:59;6.18;;;2.20;;
59649;SDS011;46162;57.568;25.814;2022-11-14T15:40:19;5.13;;;2.67;;
59649;SDS011;46162;57.568;25.814;2022-11-14T15:46:40;3.85;;;1.92;;
59649;SDS011;46162;57.568;25.814;2022-11-14T15:49:32;7.32;;;2.00;;
59649;SDS011;46162;57.568;25.814;2022-11-14T15:52:22;3.90;;;1.55;;
59649;SDS011;46162;57.568;25.814;2022-11-14T15:55:13;10.70;;;1.85;;
59649;SDS011;46162;57.568;25.814;2022-11-14T15:58:02;5.40;;;1.73;;
59649;SDS011;46162;57.568;25.814;2022-11-14T16:01:14;3.97;;;1.77;;
59649;SDS011;46162;57.568;25.814;2022-11-14T16:04:12;3.30;;;1.42;;
59649;SDS011;46162;57.568;25.814;2022-11-14T16:07:01;3.78;;;1.30;;
59649;SDS011;46162;57.568;25.814;2022-11-14T16:09:50;3.10;;;1.35;;
59649;SDS011;46162;57.568;25.814;2022-11-14T16:12:37;5.07;;;1.88;;
59649;SDS011;46162;57.568;25.814;2022-11-14T16:15:24;6.35;;;1.75;;
59649;SDS011;46162;57.568;25.814;2022-11-14T16:18:11;2.92;;;1.02;;
59649;SDS011;46162;57.568;25.814;2022-11-14T16:21:00;3.67;;;1.42;;
59649;SDS011;46162;57.568;25.814;2022-11-14T16:23:48;3.58;;;1.58;;
59649;SDS011;46162;57.568;25.814;2022-11-14T16:26:36;5.72;;;1.58;;
59649;SDS011;46162;57.568;25.814;2022-11-14T16:29:25;3.03;;;1.23;;
59649;SDS011;46162;57.568;25.814;2022-11-14T16:32:13;3.65;;;1.48;;
59649;SDS011;46162;57.568;25.814;2022-11-14T16:35:00;6.03;;;1.30;;
59649;SDS011;46162;57.568;25.814;2022-11-14T16:37:49;3.13;;;1.20;;
59649;SDS011;46162;57.568;25.814;2022-11-14T16:40:36;4.53;;;1.50;;
59649;SDS011;46162;57.568;25.814;2022-11-14T16:43:28;4.45;;;1.30;;
59649;SDS011;46162;57.568;25.814;2022-11-14T16:46:16;3.78;;;1.42;;
59649;SDS011;46162;57.568;25.814;2022-11-14T16:49:04;3.42;;;1.48;;
59649;SDS011;46162;57.568;25.814;2022-11-14T16:51:51;4.22;;;1.45;;
59649;SDS011;46162;57.568;25.814;2022-11-14T16:54:42;5.53;;;1.92;;
59649;SDS011;46162;57.568;25.814;2022-11-14T16:57:30;3.50;;;1.30;;
59649;SDS011;46162;57.568;25.814;2022-11-14T17:00:17;5.13;;;1.95;;
59649;SDS011;46162;57.568;25.814;2022-11-14T17:03:05;3.97;;;1.38;;
59649;SDS011;46162;57.568;25.814;2022-11-14T17:05:52;7.00;;;2.05;;
59649;SDS011;46162;57.568;25.814;2022-11-14T17:08:39;3.83;;;1.52;;
59649;SDS011;46162;57.568;25.814;2022-11-14T17:11:28;4.00;;;1.83;;
59649;SDS011;46162;57.568;25.814;2022-11-14T17:14:15;5.80;;;2.83;;
59649;SDS011;46162;57.568;25.814;2022-11-14T17:17:02;6.45;;;2.92;;
59649;SDS011;46162;57.568;25.814;2022-11-14T17:19:49;5.53;;;2.60;;
59649;SDS011;46162;57.568;25.814;2022-11-14T17:22:36;4.15;;;2.10;;
59649;SDS011;46162;57.568;25.814;2022-11-14T17:25:24;4.85;;;2.10;;